sensor_id;sensor_type;location;lat;lon;timestamp;temperature;humidity
22006;DHT22;11167;46.988;15.470;2022-08-19T00:01:30;23.80;61.80
22006;DHT22;11167;46.988;15.470;2022-08-19T00:03:31;23.70;59.30
22006;DHT22;11167;46.988;15.470;2022-08-19T00:05:33;23.80;67.50
22006;DHT22;11167;46.988;15.470;2022-08-19T00:07:34;23.70;59.40
22006;DHT22;11167;46.988;15.470;2022-08-19T00:09:35;23.70;59.30
22006;DHT22;11167;46.988;15.470;2022-08-19T00:11:37;23.70;59.40
22006;DHT22;11167;46.988;15.470;2022-08-19T00:13:38;23.70;59.50
22006;DHT22;11167;46.988;15.470;2022-08-19T00:15:39;23.60;59.40
22006;DHT22;11167;46.988;15.470;2022-08-19T00:17:43;23.60;59.40
22006;DHT22;11167;46.988;15.470;2022-08-19T00:19:44;23.60;59.00
22006;DHT22;11167;46.988;15.470;2022-08-19T00:21:45;23.60;59.50
22006;DHT22;11167;46.988;15.470;2022-08-19T00:23:47;23.60;58.80
22006;DHT22;11167;46.988;15.470;2022-08-19T00:25:48;23.60;89.30
22006;DHT22;11167;46.988;15.470;2022-08-19T00:29:51;23.40;58.70
22006;DHT22;11167;46.988;15.470;2022-08-19T00:31:52;23.50;59.20
22006;DHT22;11167;46.988;15.470;2022-08-19T00:33:57;23.50;59.50
22006;DHT22;11167;46.988;15.470;2022-08-19T00:35:59;23.50;59.50
22006;DHT22;11167;46.988;15.470;2022-08-19T00:40:04;23.40;89.20
22006;DHT22;11167;46.988;15.470;2022-08-19T00:42:06;23.40;78.90
22006;DHT22;11167;46.988;15.470;2022-08-19T00:44:21;23.10;87.00
22006;DHT22;11167;46.988;15.470;2022-08-19T00:46:21;23.60;91.60
22006;DHT22;11167;46.988;15.470;2022-08-19T00:48:23;23.90;82.30
22006;DHT22;11167;46.988;15.470;2022-08-19T00:50:24;23.30;59.50
22006;DHT22;11167;46.988;15.470;2022-08-19T00:52:29;23.30;59.50
22006;DHT22;11167;46.988;15.470;2022-08-19T00:54:30;23.30;59.50
22006;DHT22;11167;46.988;15.470;2022-08-19T00:56:32;23.30;59.50
22006;DHT22;11167;46.988;15.470;2022-08-19T00:58:35;23.30;59.50
22006;DHT22;11167;46.988;15.470;2022-08-19T01:00:37;23.20;59.50
22006;DHT22;11167;46.988;15.470;2022-08-19T01:02:39;23.20;59.60
22006;DHT22;11167;46.988;15.470;2022-08-19T01:04:41;23.20;59.60
22006;DHT22;11167;46.988;15.470;2022-08-19T01:06:42;23.20;59.60
22006;DHT22;11167;46.988;15.470;2022-08-19T01:08:44;23.20;59.60
22006;DHT22;11167;46.988;15.470;2022-08-19T01:10:50;23.20;59.60
22006;DHT22;11167;46.988;15.470;2022-08-19T01:12:51;23.10;59.60
22006;DHT22;11167;46.988;15.470;2022-08-19T01:14:53;23.10;59.60
22006;DHT22;11167;46.988;15.470;2022-08-19T01:16:56;23.10;59.60
22006;DHT22;11167;46.988;15.470;2022-08-19T01:18:57;23.10;59.60
22006;DHT22;11167;46.988;15.470;2022-08-19T01:21:02;23.10;59.60
22006;DHT22;11167;46.988;15.470;2022-08-19T01:23:04;23.10;59.60
22006;DHT22;11167;46.988;15.470;2022-08-19T01:25:06;23.10;59.70
22006;DHT22;11167;46.988;15.470;2022-08-19T01:27:08;23.00;59.70
22006;DHT22;11167;46.988;15.470;2022-08-19T01:29:10;23.00;59.70
22006;DHT22;11167;46.988;15.470;2022-08-19T01:31:17;23.00;59.70
22006;DHT22;11167;46.988;15.470;2022-08-19T01:33:19;23.00;59.70
22006;DHT22;11167;46.988;15.470;2022-08-19T01:35:23;23.00;59.70
22006;DHT22;11167;46.988;15.470;2022-08-19T01:37:24;22.90;59.60
22006;DHT22;11167;46.988;15.470;2022-08-19T01:39:25;22.90;59.70
22006;DHT22;11167;46.988;15.470;2022-08-19T01:41:27;22.90;59.80
22006;DHT22;11167;46.988;15.470;2022-08-19T01:43:28;22.90;59.70
22006;DHT22;11167;46.988;15.470;2022-08-19T01:45:32;22.90;59.70
22006;DHT22;11167;46.988;15.470;2022-08-19T01:47:35;22.90;59.80
22006;DHT22;11167;46.988;15.470;2022-08-19T01:49:36;22.90;59.70
22006;DHT22;11167;46.988;15.470;2022-08-19T01:51:38;22.80;59.70
22006;DHT22;11167;46.988;15.470;2022-08-19T01:56:04;22.80;60.40
22006;DHT22;11167;46.988;15.470;2022-08-19T01:58:18;22.80;59.80
22006;DHT22;11167;46.988;15.470;2022-08-19T02:00:19;22.70;59.80
22006;DHT22;11167;46.988;15.470;2022-08-19T02:02:21;22.70;59.80
22006;DHT22;11167;46.988;15.470;2022-08-19T02:04:22;22.70;59.80
22006;DHT22;11167;46.988;15.470;2022-08-19T02:06:24;22.70;59.90
22006;DHT22;11167;46.988;15.470;2022-08-19T02:08:26;22.70;59.80
22006;DHT22;11167;46.988;15.470;2022-08-19T02:10:28;22.70;59.90
22006;DHT22;11167;46.988;15.470;2022-08-19T02:12:29;22.70;59.90
22006;DHT22;11167;46.988;15.470;2022-08-19T02:14:30;22.70;59.90
22006;DHT22;11167;46.988;15.470;2022-08-19T02:16:32;22.60;59.90
22006;DHT22;11167;46.988;15.470;2022-08-19T02:18:33;22.60;59.90
22006;DHT22;11167;46.988;15.470;2022-08-19T02:20:35;22.60;59.90
22006;DHT22;11167;46.988;15.470;2022-08-19T02:22:36;22.60;59.90
22006;DHT22;11167;46.988;15.470;2022-08-19T02:24:38;22.60;59.90
22006;DHT22;11167;46.988;15.470;2022-08-19T02:26:39;22.60;60.80
22006;DHT22;11167;46.988;15.470;2022-08-19T02:28:41;23.70;60.60
22006;DHT22;11167;46.988;15.470;2022-08-19T02:30:43;22.50;60.00
22006;DHT22;11167;46.988;15.470;2022-08-19T02:32:44;22.50;59.90
22006;DHT22;11167;46.988;15.470;2022-08-19T02:34:46;22.50;60.80
22006;DHT22;11167;46.988;15.470;2022-08-19T02:36:48;22.50;60.10
22006;DHT22;11167;46.988;15.470;2022-08-19T02:38:49;22.50;59.90
22006;DHT22;11167;46.988;15.470;2022-08-19T02:40:52;22.50;60.00
22006;DHT22;11167;46.988;15.470;2022-08-19T02:42:54;22.50;59.90
22006;DHT22;11167;46.988;15.470;2022-08-19T02:44:56;22.40;60.00
22006;DHT22;11167;46.988;15.470;2022-08-19T02:46:57;22.40;60.00
22006;DHT22;11167;46.988;15.470;2022-08-19T02:49:02;22.40;60.00
22006;DHT22;11167;46.988;15.470;2022-08-19T02:51:03;22.40;60.00
22006;DHT22;11167;46.988;15.470;2022-08-19T02:53:05;22.40;60.10
22006;DHT22;11167;46.988;15.470;2022-08-19T02:55:08;22.40;60.10
22006;DHT22;11167;46.988;15.470;2022-08-19T02:57:10;22.40;60.10
22006;DHT22;11167;46.988;15.470;2022-08-19T02:59:11;22.30;60.10
22006;DHT22;11167;46.988;15.470;2022-08-19T03:01:28;22.30;60.10
22006;DHT22;11167;46.988;15.470;2022-08-19T03:03:26;22.30;60.20
22006;DHT22;11167;46.988;15.470;2022-08-19T03:05:27;22.30;60.10
22006;DHT22;11167;46.988;15.470;2022-08-19T03:07:28;22.30;60.10
22006;DHT22;11167;46.988;15.470;2022-08-19T03:09:29;22.30;60.10
22006;DHT22;11167;46.988;15.470;2022-08-19T03:11:32;22.30;60.10
22006;DHT22;11167;46.988;15.470;2022-08-19T03:13:33;22.30;60.10
22006;DHT22;11167;46.988;15.470;2022-08-19T03:15:34;22.20;60.10
22006;DHT22;11167;46.988;15.470;2022-08-19T03:17:37;22.20;60.20
22006;DHT22;11167;46.988;15.470;2022-08-19T03:19:39;22.20;60.20
22006;DHT22;11167;46.988;15.470;2022-08-19T03:21:42;22.20;60.70
22006;DHT22;11167;46.988;15.470;2022-08-19T03:23:45;22.20;60.20
22006;DHT22;11167;46.988;15.470;2022-08-19T03:25:48;22.20;60.30
22006;DHT22;11167;46.988;15.470;2022-08-19T03:27:50;22.20;60.30
22006;DHT22;11167;46.988;15.470;2022-08-19T03:29:51;22.20;60.30
22006;DHT22;11167;46.988;15.470;2022-08-19T03:31:52;22.20;60.30
22006;DHT22;11167;46.988;15.470;2022-08-19T03:33:56;22.40;60.40
22006;DHT22;11167;46.988;15.470;2022-08-19T03:38:11;22.10;60.30
22006;DHT22;11167;46.988;15.470;2022-08-19T03:40:12;22.10;60.30
22006;DHT22;11167;46.988;15.470;2022-08-19T03:42:13;22.10;60.30
22006;DHT22;11167;46.988;15.470;2022-08-19T03:44:18;22.10;60.40
22006;DHT22;11167;46.988;15.470;2022-08-19T03:46:28;22.10;60.40
22006;DHT22;11167;46.988;15.470;2022-08-19T03:48:30;22.10;61.10
22006;DHT22;11167;46.988;15.470;2022-08-19T03:50:31;22.10;60.40
22006;DHT22;11167;46.988;15.470;2022-08-19T03:52:33;22.10;60.50
22006;DHT22;11167;46.988;15.470;2022-08-19T03:54:34;22.00;60.40
22006;DHT22;11167;46.988;15.470;2022-08-19T03:56:38;22.10;60.60
22006;DHT22;11167;46.988;15.470;2022-08-19T03:58:40;22.00;60.40
22006;DHT22;11167;46.988;15.470;2022-08-19T04:00:44;22.00;60.50
22006;DHT22;11167;46.988;15.470;2022-08-19T04:02:45;22.00;60.50
22006;DHT22;11167;46.988;15.470;2022-08-19T04:04:46;22.00;60.50
22006;DHT22;11167;46.988;15.470;2022-08-19T04:06:48;22.00;60.50
22006;DHT22;11167;46.988;15.470;2022-08-19T04:08:50;22.00;60.50
22006;DHT22;11167;46.988;15.470;2022-08-19T04:10:52;22.00;61.50
22006;DHT22;11167;46.988;15.470;2022-08-19T04:12:54;22.00;60.50
22006;DHT22;11167;46.988;15.470;2022-08-19T04:14:55;22.00;60.50
22006;DHT22;11167;46.988;15.470;2022-08-19T04:16:58;22.00;60.50
22006;DHT22;11167;46.988;15.470;2022-08-19T04:19:01;21.90;60.50
22006;DHT22;11167;46.988;15.470;2022-08-19T04:21:03;22.00;60.60
22006;DHT22;11167;46.988;15.470;2022-08-19T04:23:04;21.90;60.50
22006;DHT22;11167;46.988;15.470;2022-08-19T04:25:06;21.90;60.90
22006;DHT22;11167;46.988;15.470;2022-08-19T04:27:07;21.90;60.50
22006;DHT22;11167;46.988;15.470;2022-08-19T04:29:11;21.90;60.60
22006;DHT22;11167;46.988;15.470;2022-08-19T04:31:19;21.90;60.70
22006;DHT22;11167;46.988;15.470;2022-08-19T04:33:23;21.90;60.60
22006;DHT22;11167;46.988;15.470;2022-08-19T04:35:25;21.90;60.60
22006;DHT22;11167;46.988;15.470;2022-08-19T04:37:27;21.90;60.70
22006;DHT22;11167;46.988;15.470;2022-08-19T04:39:30;21.90;60.70
22006;DHT22;11167;46.988;15.470;2022-08-19T04:41:49;21.90;60.70
22006;DHT22;11167;46.988;15.470;2022-08-19T04:44:10;21.90;60.70
22006;DHT22;11167;46.988;15.470;2022-08-19T04:46:12;21.90;60.70
22006;DHT22;11167;46.988;15.470;2022-08-19T04:48:13;21.90;60.70
22006;DHT22;11167;46.988;15.470;2022-08-19T04:50:15;21.80;60.70
22006;DHT22;11167;46.988;15.470;2022-08-19T04:52:16;21.80;60.70
22006;DHT22;11167;46.988;15.470;2022-08-19T04:54:18;21.80;60.70
22006;DHT22;11167;46.988;15.470;2022-08-19T04:56:21;21.80;60.70
22006;DHT22;11167;46.988;15.470;2022-08-19T04:58:25;21.80;60.90
22006;DHT22;11167;46.988;15.470;2022-08-19T05:00:26;21.80;60.70
22006;DHT22;11167;46.988;15.470;2022-08-19T05:02:27;21.80;60.80
22006;DHT22;11167;46.988;15.470;2022-08-19T05:04:30;21.80;60.80
22006;DHT22;11167;46.988;15.470;2022-08-19T05:06:33;21.80;60.80
22006;DHT22;11167;46.988;15.470;2022-08-19T05:08:35;21.80;60.80
22006;DHT22;11167;46.988;15.470;2022-08-19T05:10:38;21.80;60.90
22006;DHT22;11167;46.988;15.470;2022-08-19T05:12:40;21.80;60.80
22006;DHT22;11167;46.988;15.470;2022-08-19T05:14:41;21.80;60.30
22006;DHT22;11167;46.988;15.470;2022-08-19T05:16:42;21.40;67.00
22006;DHT22;11167;46.988;15.470;2022-08-19T05:18:44;21.80;64.90
22006;DHT22;11167;46.988;15.470;2022-08-19T05:21:09;21.90;64.00
22006;DHT22;11167;46.988;15.470;2022-08-19T05:23:29;21.80;64.30
22006;DHT22;11167;46.988;15.470;2022-08-19T05:25:31;21.80;60.90
22006;DHT22;11167;46.988;15.470;2022-08-19T05:27:32;21.80;60.30
22006;DHT22;11167;46.988;15.470;2022-08-19T05:29:34;21.30;61.00
22006;DHT22;11167;46.988;15.470;2022-08-19T05:31:36;21.80;65.60
22006;DHT22;11167;46.988;15.470;2022-08-19T05:33:37;21.80;61.00
22006;DHT22;11167;46.988;15.470;2022-08-19T05:35:40;21.80;61.00
22006;DHT22;11167;46.988;15.470;2022-08-19T05:37:42;21.80;61.00
22006;DHT22;11167;46.988;15.470;2022-08-19T05:39:43;21.60;65.40
22006;DHT22;11167;46.988;15.470;2022-08-19T05:41:50;21.80;65.20
22006;DHT22;11167;46.988;15.470;2022-08-19T05:43:51;21.80;64.70
22006;DHT22;11167;46.988;15.470;2022-08-19T05:45:52;21.90;65.80
22006;DHT22;11167;46.988;15.470;2022-08-19T05:47:54;21.80;61.10
22006;DHT22;11167;46.988;15.470;2022-08-19T05:49:55;21.70;61.10
22006;DHT22;11167;46.988;15.470;2022-08-19T05:51:56;21.80;60.30
22006;DHT22;11167;46.988;15.470;2022-08-19T05:53:57;21.70;61.10
22006;DHT22;11167;46.988;15.470;2022-08-19T05:56:18;21.70;61.10
22006;DHT22;11167;46.988;15.470;2022-08-19T05:58:06;21.70;68.30
22006;DHT22;11167;46.988;15.470;2022-08-19T06:00:11;21.70;61.00
22006;DHT22;11167;46.988;15.470;2022-08-19T06:02:13;21.80;61.10
22006;DHT22;11167;46.988;15.470;2022-08-19T06:04:14;21.70;61.10
22006;DHT22;11167;46.988;15.470;2022-08-19T06:06:16;21.70;63.50
22006;DHT22;11167;46.988;15.470;2022-08-19T06:08:18;21.70;63.70
22006;DHT22;11167;46.988;15.470;2022-08-19T06:10:19;21.70;61.10
22006;DHT22;11167;46.988;15.470;2022-08-19T06:12:21;21.70;61.10
22006;DHT22;11167;46.988;15.470;2022-08-19T06:14:29;21.80;62.10
22006;DHT22;11167;46.988;15.470;2022-08-19T06:16:31;22.30;65.20
22006;DHT22;11167;46.988;15.470;2022-08-19T06:18:34;21.70;61.10
22006;DHT22;11167;46.988;15.470;2022-08-19T06:20:35;21.80;61.10
22006;DHT22;11167;46.988;15.470;2022-08-19T06:22:40;21.80;61.20
22006;DHT22;11167;46.988;15.470;2022-08-19T06:24:42;21.80;61.20
22006;DHT22;11167;46.988;15.470;2022-08-19T06:26:46;21.80;61.20
22006;DHT22;11167;46.988;15.470;2022-08-19T06:28:48;21.80;61.30
22006;DHT22;11167;46.988;15.470;2022-08-19T06:30:49;21.80;61.20
22006;DHT22;11167;46.988;15.470;2022-08-19T06:32:52;21.80;61.20
22006;DHT22;11167;46.988;15.470;2022-08-19T06:34:53;21.80;61.20
22006;DHT22;11167;46.988;15.470;2022-08-19T06:36:56;21.80;61.20
22006;DHT22;11167;46.988;15.470;2022-08-19T06:38:58;21.80;61.30
22006;DHT22;11167;46.988;15.470;2022-08-19T06:41:01;21.80;61.20
22006;DHT22;11167;46.988;15.470;2022-08-19T06:43:03;21.80;61.20
22006;DHT22;11167;46.988;15.470;2022-08-19T06:45:05;21.80;61.20
22006;DHT22;11167;46.988;15.470;2022-08-19T06:47:08;21.80;61.50
22006;DHT22;11167;46.988;15.470;2022-08-19T06:49:10;21.80;61.20
22006;DHT22;11167;46.988;15.470;2022-08-19T06:51:14;21.80;61.20
22006;DHT22;11167;46.988;15.470;2022-08-19T06:53:16;21.80;61.30
22006;DHT22;11167;46.988;15.470;2022-08-19T06:55:19;21.80;62.10
22006;DHT22;11167;46.988;15.470;2022-08-19T06:57:20;21.80;61.30
22006;DHT22;11167;46.988;15.470;2022-08-19T06:59:24;21.80;61.30
22006;DHT22;11167;46.988;15.470;2022-08-19T07:01:27;21.90;61.40
22006;DHT22;11167;46.988;15.470;2022-08-19T07:03:33;21.90;61.40
22006;DHT22;11167;46.988;15.470;2022-08-19T07:05:40;21.90;61.40
22006;DHT22;11167;46.988;15.470;2022-08-19T07:07:41;21.90;61.40
22006;DHT22;11167;46.988;15.470;2022-08-19T07:09:45;21.90;61.40
22006;DHT22;11167;46.988;15.470;2022-08-19T07:11:49;21.90;61.40
22006;DHT22;11167;46.988;15.470;2022-08-19T07:13:50;21.90;61.50
22006;DHT22;11167;46.988;15.470;2022-08-19T07:15:52;21.90;61.50
22006;DHT22;11167;46.988;15.470;2022-08-19T07:17:53;21.90;61.40
22006;DHT22;11167;46.988;15.470;2022-08-19T07:19:54;21.90;61.40
22006;DHT22;11167;46.988;15.470;2022-08-19T07:21:55;21.90;61.50
22006;DHT22;11167;46.988;15.470;2022-08-19T07:23:59;21.90;61.50
22006;DHT22;11167;46.988;15.470;2022-08-19T07:26:08;22.00;61.50
22006;DHT22;11167;46.988;15.470;2022-08-19T07:28:09;22.00;61.50
22006;DHT22;11167;46.988;15.470;2022-08-19T07:30:10;22.00;61.50
22006;DHT22;11167;46.988;15.470;2022-08-19T07:32:12;22.00;61.60
22006;DHT22;11167;46.988;15.470;2022-08-19T07:34:13;22.00;61.60
22006;DHT22;11167;46.988;15.470;2022-08-19T07:36:18;22.00;67.30
22006;DHT22;11167;46.988;15.470;2022-08-19T07:38:20;22.00;61.50
22006;DHT22;11167;46.988;15.470;2022-08-19T07:40:22;22.00;67.70
22006;DHT22;11167;46.988;15.470;2022-08-19T07:42:23;22.00;61.60
22006;DHT22;11167;46.988;15.470;2022-08-19T07:44:25;21.70;67.40
22006;DHT22;11167;46.988;15.470;2022-08-19T07:46:26;22.00;61.60
22006;DHT22;11167;46.988;15.470;2022-08-19T07:48:29;22.70;70.40
22006;DHT22;11167;46.988;15.470;2022-08-19T07:50:31;22.50;74.90
22006;DHT22;11167;46.988;15.470;2022-08-19T07:52:34;22.10;75.40
22006;DHT22;11167;46.988;15.470;2022-08-19T07:54:38;22.20;85.00
22006;DHT22;11167;46.988;15.470;2022-08-19T07:56:39;22.10;82.80
22006;DHT22;11167;46.988;15.470;2022-08-19T08:02:50;22.00;68.10
22006;DHT22;11167;46.988;15.470;2022-08-19T08:04:51;22.10;61.70
22006;DHT22;11167;46.988;15.470;2022-08-19T08:09:33;22.10;73.70
22006;DHT22;11167;46.988;15.470;2022-08-19T08:11:35;22.20;75.40
22006;DHT22;11167;46.988;15.470;2022-08-19T08:13:39;22.20;68.10
22006;DHT22;11167;46.988;15.470;2022-08-19T08:19:51;22.10;73.90
22006;DHT22;11167;46.988;15.470;2022-08-19T08:21:55;22.20;86.20
22006;DHT22;11167;46.988;15.470;2022-08-19T08:23:56;22.30;61.10
22006;DHT22;11167;46.988;15.470;2022-08-19T08:25:57;22.20;61.70
22006;DHT22;11167;46.988;15.470;2022-08-19T08:27:59;22.20;61.80
22006;DHT22;11167;46.988;15.470;2022-08-19T08:30:00;22.20;61.70
22006;DHT22;11167;46.988;15.470;2022-08-19T08:32:02;22.20;61.80
22006;DHT22;11167;46.988;15.470;2022-08-19T08:34:04;22.30;62.00
22006;DHT22;11167;46.988;15.470;2022-08-19T08:36:05;22.20;61.80
22006;DHT22;11167;46.988;15.470;2022-08-19T08:38:07;22.30;61.80
22006;DHT22;11167;46.988;15.470;2022-08-19T08:40:18;22.30;61.80
22006;DHT22;11167;46.988;15.470;2022-08-19T08:42:26;22.30;62.20
22006;DHT22;11167;46.988;15.470;2022-08-19T08:46:53;22.30;61.80
22006;DHT22;11167;46.988;15.470;2022-08-19T08:49:33;22.30;61.80
22006;DHT22;11167;46.988;15.470;2022-08-19T08:51:20;22.30;61.90
22006;DHT22;11167;46.988;15.470;2022-08-19T08:53:18;22.30;62.00
22006;DHT22;11167;46.988;15.470;2022-08-19T08:55:23;22.30;62.00
22006;DHT22;11167;46.988;15.470;2022-08-19T08:57:36;22.30;61.90
22006;DHT22;11167;46.988;15.470;2022-08-19T08:59:38;22.30;61.90
22006;DHT22;11167;46.988;15.470;2022-08-19T09:01:40;22.30;61.90
22006;DHT22;11167;46.988;15.470;2022-08-19T09:03:43;22.30;62.00
22006;DHT22;11167;46.988;15.470;2022-08-19T09:06:04;22.30;62.00
22006;DHT22;11167;46.988;15.470;2022-08-19T09:10:51;22.40;62.00
22006;DHT22;11167;46.988;15.470;2022-08-19T09:13:20;22.30;61.90
22006;DHT22;11167;46.988;15.470;2022-08-19T09:17:30;22.40;62.20
22006;DHT22;11167;46.988;15.470;2022-08-19T09:19:32;22.40;62.00
22006;DHT22;11167;46.988;15.470;2022-08-19T09:21:33;22.40;62.00
22006;DHT22;11167;46.988;15.470;2022-08-19T09:23:36;22.40;62.10
22006;DHT22;11167;46.988;15.470;2022-08-19T09:25:37;22.40;62.00
22006;DHT22;11167;46.988;15.470;2022-08-19T09:27:41;22.40;62.00
22006;DHT22;11167;46.988;15.470;2022-08-19T09:29:43;22.40;62.00
22006;DHT22;11167;46.988;15.470;2022-08-19T09:31:44;22.50;62.10
22006;DHT22;11167;46.988;15.470;2022-08-19T09:33:46;22.40;62.20
22006;DHT22;11167;46.988;15.470;2022-08-19T09:35:47;22.50;62.30
22006;DHT22;11167;46.988;15.470;2022-08-19T09:37:49;22.50;62.10
22006;DHT22;11167;46.988;15.470;2022-08-19T09:39:50;22.50;62.30
22006;DHT22;11167;46.988;15.470;2022-08-19T09:41:51;22.50;62.10
22006;DHT22;11167;46.988;15.470;2022-08-19T09:43:55;22.50;62.10
22006;DHT22;11167;46.988;15.470;2022-08-19T09:45:57;22.50;62.20
22006;DHT22;11167;46.988;15.470;2022-08-19T09:47:59;22.50;62.20
22006;DHT22;11167;46.988;15.470;2022-08-19T09:50:00;22.60;62.30
22006;DHT22;11167;46.988;15.470;2022-08-19T09:52:01;22.60;62.30
22006;DHT22;11167;46.988;15.470;2022-08-19T09:54:03;22.60;62.30
22006;DHT22;11167;46.988;15.470;2022-08-19T09:58:07;22.60;61.60
22006;DHT22;11167;46.988;15.470;2022-08-19T10:00:09;22.60;74.40
22006;DHT22;11167;46.988;15.470;2022-08-19T10:02:11;22.60;62.50
22006;DHT22;11167;46.988;15.470;2022-08-19T10:04:12;22.70;62.40
22006;DHT22;11167;46.988;15.470;2022-08-19T10:06:13;22.70;62.40
22006;DHT22;11167;46.988;15.470;2022-08-19T10:08:21;22.70;62.40
22006;DHT22;11167;46.988;15.470;2022-08-19T10:10:23;22.70;62.40
22006;DHT22;11167;46.988;15.470;2022-08-19T10:12:24;22.70;62.50
22006;DHT22;11167;46.988;15.470;2022-08-19T10:14:26;22.70;62.40
22006;DHT22;11167;46.988;15.470;2022-08-19T10:16:28;22.70;62.50
22006;DHT22;11167;46.988;15.470;2022-08-19T10:18:29;22.80;62.50
22006;DHT22;11167;46.988;15.470;2022-08-19T10:20:31;22.80;62.50
22006;DHT22;11167;46.988;15.470;2022-08-19T10:22:32;22.80;62.50
22006;DHT22;11167;46.988;15.470;2022-08-19T10:24:35;22.80;62.50
22006;DHT22;11167;46.988;15.470;2022-08-19T10:26:39;22.80;62.50
22006;DHT22;11167;46.988;15.470;2022-08-19T10:28:43;22.80;62.50
22006;DHT22;11167;46.988;15.470;2022-08-19T10:30:44;22.90;62.50
22006;DHT22;11167;46.988;15.470;2022-08-19T10:32:45;22.90;62.50
22006;DHT22;11167;46.988;15.470;2022-08-19T10:34:46;22.90;62.70
22006;DHT22;11167;46.988;15.470;2022-08-19T10:37:07;22.90;62.60
22006;DHT22;11167;46.988;15.470;2022-08-19T10:39:10;22.50;63.50
22006;DHT22;11167;46.988;15.470;2022-08-19T10:41:15;23.00;62.80
22006;DHT22;11167;46.988;15.470;2022-08-19T10:43:17;23.00;62.70
22006;DHT22;11167;46.988;15.470;2022-08-19T10:45:18;23.00;62.70
22006;DHT22;11167;46.988;15.470;2022-08-19T10:47:22;23.00;62.70
22006;DHT22;11167;46.988;15.470;2022-08-19T10:49:23;23.00;62.70
22006;DHT22;11167;46.988;15.470;2022-08-19T10:51:24;23.00;62.70
22006;DHT22;11167;46.988;15.470;2022-08-19T10:53:44;23.10;62.90
22006;DHT22;11167;46.988;15.470;2022-08-19T10:55:45;23.10;62.90
22006;DHT22;11167;46.988;15.470;2022-08-19T10:58:11;23.10;63.70
22006;DHT22;11167;46.988;15.470;2022-08-19T11:00:13;23.10;62.90
22006;DHT22;11167;46.988;15.470;2022-08-19T11:02:14;23.10;62.90
22006;DHT22;11167;46.988;15.470;2022-08-19T11:04:18;23.20;62.90
22006;DHT22;11167;46.988;15.470;2022-08-19T11:06:19;23.20;63.40
22006;DHT22;11167;46.988;15.470;2022-08-19T11:08:21;23.20;62.90
22006;DHT22;11167;46.988;15.470;2022-08-19T11:10:23;23.20;62.90
22006;DHT22;11167;46.988;15.470;2022-08-19T11:12:24;23.20;62.90
22006;DHT22;11167;46.988;15.470;2022-08-19T11:14:25;23.30;63.10
22006;DHT22;11167;46.988;15.470;2022-08-19T11:16:26;23.30;63.90
22006;DHT22;11167;46.988;15.470;2022-08-19T11:18:29;23.30;63.00
22006;DHT22;11167;46.988;15.470;2022-08-19T11:20:31;23.30;63.00
22006;DHT22;11167;46.988;15.470;2022-08-19T11:22:32;23.30;63.00
22006;DHT22;11167;46.988;15.470;2022-08-19T11:24:33;23.40;63.10
22006;DHT22;11167;46.988;15.470;2022-08-19T11:26:36;23.40;63.10
22006;DHT22;11167;46.988;15.470;2022-08-19T11:28:37;23.40;63.10
22006;DHT22;11167;46.988;15.470;2022-08-19T11:30:39;23.40;63.10
22006;DHT22;11167;46.988;15.470;2022-08-19T11:32:41;23.40;63.20
22006;DHT22;11167;46.988;15.470;2022-08-19T11:34:42;23.50;63.20
22006;DHT22;11167;46.988;15.470;2022-08-19T11:36:44;23.50;63.20
22006;DHT22;11167;46.988;15.470;2022-08-19T11:38:47;23.50;63.20
22006;DHT22;11167;46.988;15.470;2022-08-19T11:40:57;23.50;63.20
22006;DHT22;11167;46.988;15.470;2022-08-19T11:42:59;23.60;63.20
22006;DHT22;11167;46.988;15.470;2022-08-19T11:45:00;23.60;63.30
22006;DHT22;11167;46.988;15.470;2022-08-19T11:47:01;23.60;63.30
22006;DHT22;11167;46.988;15.470;2022-08-19T11:49:04;23.60;63.30
22006;DHT22;11167;46.988;15.470;2022-08-19T11:51:13;23.60;62.80
22006;DHT22;11167;46.988;15.470;2022-08-19T11:53:11;23.60;63.20
22006;DHT22;11167;46.988;15.470;2022-08-19T11:55:13;23.70;63.30
22006;DHT22;11167;46.988;15.470;2022-08-19T11:57:15;23.70;63.50
22006;DHT22;11167;46.988;15.470;2022-08-19T11:59:17;23.70;63.30
22006;DHT22;11167;46.988;15.470;2022-08-19T12:01:20;23.70;63.30
22006;DHT22;11167;46.988;15.470;2022-08-19T12:03:22;23.70;63.30
22006;DHT22;11167;46.988;15.470;2022-08-19T12:05:23;23.80;63.40
22006;DHT22;11167;46.988;15.470;2022-08-19T12:07:24;23.80;63.40
22006;DHT22;11167;46.988;15.470;2022-08-19T12:09:26;23.80;63.50
22006;DHT22;11167;46.988;15.470;2022-08-19T12:11:28;23.80;63.50
22006;DHT22;11167;46.988;15.470;2022-08-19T12:13:30;23.80;63.40
22006;DHT22;11167;46.988;15.470;2022-08-19T12:15:37;23.90;63.50
22006;DHT22;11167;46.988;15.470;2022-08-19T12:17:41;23.90;63.50
22006;DHT22;11167;46.988;15.470;2022-08-19T12:19:43;23.90;63.50
22006;DHT22;11167;46.988;15.470;2022-08-19T12:21:45;23.90;64.40
22006;DHT22;11167;46.988;15.470;2022-08-19T12:23:47;24.00;63.70
22006;DHT22;11167;46.988;15.470;2022-08-19T12:25:49;24.00;63.60
22006;DHT22;11167;46.988;15.470;2022-08-19T12:27:52;24.00;63.70
22006;DHT22;11167;46.988;15.470;2022-08-19T12:29:53;24.10;63.70
22006;DHT22;11167;46.988;15.470;2022-08-19T12:31:55;24.10;63.70
22006;DHT22;11167;46.988;15.470;2022-08-19T12:33:58;24.10;63.70
22006;DHT22;11167;46.988;15.470;2022-08-19T12:36:07;24.10;63.70
22006;DHT22;11167;46.988;15.470;2022-08-19T12:38:10;24.20;63.80
22006;DHT22;11167;46.988;15.470;2022-08-19T12:40:13;24.20;63.80
22006;DHT22;11167;46.988;15.470;2022-08-19T12:42:15;24.20;63.80
22006;DHT22;11167;46.988;15.470;2022-08-19T12:44:16;24.20;63.80
22006;DHT22;11167;46.988;15.470;2022-08-19T12:46:19;24.30;63.80
22006;DHT22;11167;46.988;15.470;2022-08-19T12:48:20;24.30;63.90
22006;DHT22;11167;46.988;15.470;2022-08-19T12:50:21;24.40;64.00
22006;DHT22;11167;46.988;15.470;2022-08-19T12:52:24;24.40;64.00
22006;DHT22;11167;46.988;15.470;2022-08-19T12:54:26;24.40;64.00
22006;DHT22;11167;46.988;15.470;2022-08-19T12:56:27;24.40;64.00
22006;DHT22;11167;46.988;15.470;2022-08-19T12:58:29;24.50;64.10
22006;DHT22;11167;46.988;15.470;2022-08-19T13:00:30;24.50;64.20
22006;DHT22;11167;46.988;15.470;2022-08-19T13:02:33;24.60;64.20
22006;DHT22;11167;46.988;15.470;2022-08-19T13:04:35;24.60;64.20
22006;DHT22;11167;46.988;15.470;2022-08-19T13:06:38;24.60;64.20
22006;DHT22;11167;46.988;15.470;2022-08-19T13:08:39;24.60;64.10
22006;DHT22;11167;46.988;15.470;2022-08-19T13:10:40;24.70;64.20
22006;DHT22;11167;46.988;15.470;2022-08-19T13:12:43;24.70;64.30